»·PEaware :: N508JP 1L1-2O7

N508JP :: 1L1-2O7

FLIGHT INFORMATION

Flight Status: Arrived
Operator: Privately registered:
United States
More flights under this callsign
Pilot: Matthew M. (8235)
Aircraft: ECLIPSE 500
(EA50)
More flights by this aircraft type
Origin: 1L1 Lincoln Co
United States
Destination: 2O7 Independence
United States
More flights between these airports :: More routes between these airports
Route: +PANAC KICHI VIKSN
File this flight plan on PilotEdge
Remarks: RMK / Alphabetti 28
Altitude:
(Current/Filed)
30,000ft
Speed:
(Current/Filed)
350kts
Departed: 25-Feb-20 11:11 AM
Arrived: 25-Feb-20 12:12 PM
Distance/Time
Traveled:
190nm/1:01
Distance/Time
To Go:
Arrived

Flight Plot

Page will automatically refresh every two minutes.

Flight plan parsing failed; only flown route is shown


Map Options




Map Legend


Flown Route
Filed Route
Departure Airport
Arrival Airport
Navaid (VOR, NDB)
Fix

Horizontal Profiles

Position Reports

Time Latitude Longitude Heading Altitude Ground
Speed
25-Feb-20 11:03 37.781440 -114.421709 161 4795ft 0kts
25-Feb-20 11:04 37.781440 -114.421709 161 4795ft 0kts
25-Feb-20 11:05 37.781440 -114.421709 161 4795ft 0kts
25-Feb-20 11:06 37.781440 -114.421709 161 4795ft 0kts
25-Feb-20 11:07 37.781440 -114.421709 161 4795ft 0kts
25-Feb-20 11:08 37.781440 -114.421709 161 4795ft 0kts
25-Feb-20 11:09 37.781206 -114.421490 91 4795ft 0kts
25-Feb-20 11:10 37.783174 -114.421032 1 4804ft 55kts
25-Feb-20 11:11 37.812832 -114.425672 334 6632ft 130kts
25-Feb-20 11:12 37.835708 -114.484761 302 8182ft 240kts
25-Feb-20 11:13 37.856653 -114.572685 275 10629ft 294kts
25-Feb-20 11:14 37.865225 -114.672215 282 13084ft 292kts
25-Feb-20 11:15 37.873209 -114.768428 281 15122ft 295kts
25-Feb-20 11:16 37.881161 -114.870728 282 17089ft 299kts
25-Feb-20 11:17 37.889037 -114.973804 282 18846ft 291kts
25-Feb-20 11:18 37.894131 -115.082057 281 20343ft 308kts
25-Feb-20 11:19 37.900178 -115.177303 284 20664ft 248kts
25-Feb-20 11:20 37.904370 -115.260502 284 20707ft 227kts
25-Feb-20 11:21 37.907502 -115.332688 284 20749ft 217kts
25-Feb-20 11:22 37.908877 -115.365020 284 20769ft 214kts
25-Feb-20 11:23 37.911861 -115.439154 285 20815ft 208kts
25-Feb-20 11:24 37.914881 -115.512609 285 20738ft 210kts
25-Feb-20 11:25 37.918043 -115.589053 284 20431ft 219kts
25-Feb-20 11:26 37.920807 -115.663891 284 20431ft 212kts
25-Feb-20 11:27 37.923488 -115.736933 284 20439ft 206kts
25-Feb-20 11:28 37.926435 -115.810144 284 20450ft 206kts
25-Feb-20 11:29 37.928894 -115.882635 283 20206ft 207kts
25-Feb-20 11:30 37.931756 -115.957444 284 19764ft 219kts
25-Feb-20 11:31 37.934898 -116.036287 283 19324ft 231kts
25-Feb-20 11:32 37.936815 -116.119171 279 18873ft 232kts
25-Feb-20 11:33 37.937496 -116.202068 282 18479ft 228kts
25-Feb-20 11:34 37.939575 -116.278273 285 18470ft 201kts
25-Feb-20 11:35 37.942430 -116.350395 283 18470ft 203kts
25-Feb-20 11:36 37.944627 -116.420415 283 18470ft 204kts
25-Feb-20 11:37 37.946848 -116.491478 283 18470ft 205kts
25-Feb-20 11:38 37.949060 -116.562769 283 18470ft 205kts
25-Feb-20 11:39 37.951247 -116.634313 283 18470ft 205kts
25-Feb-20 11:40 37.953333 -116.703531 282 18470ft 205kts
25-Feb-20 11:41 37.955438 -116.775111 282 18470ft 206kts
25-Feb-20 11:42 37.957509 -116.847288 282 18470ft 206kts
25-Feb-20 11:43 37.959560 -116.920121 282 18470ft 206kts
25-Feb-20 11:44 37.961585 -116.993581 281 18471ft 206kts
25-Feb-20 11:45 37.963569 -117.067194 280 18471ft 207kts
25-Feb-20 11:46 37.965508 -117.140942 279 18472ft 207kts
25-Feb-20 11:47 37.943904 -117.210168 228 18476ft 232kts
25-Feb-20 11:48 37.895560 -117.266229 228 18472ft 232kts
25-Feb-20 11:49 37.846146 -117.323517 227 18238ft 242kts
25-Feb-20 11:50 37.794923 -117.382530 227 18016ft 247kts
25-Feb-20 11:51 37.743759 -117.441560 227 17798ft 249kts
25-Feb-20 11:52 37.691848 -117.501433 227 17580ft 250kts
25-Feb-20 11:53 37.639822 -117.561362 227 17365ft 251kts
25-Feb-20 11:54 37.587923 -117.620997 227 17151ft 250kts
25-Feb-20 11:55 37.538397 -117.677928 226 16952ft 250kts
25-Feb-20 11:56 37.486170 -117.737790 226 16746ft 249kts
25-Feb-20 11:57 37.434606 -117.796778 226 16545ft 249kts
25-Feb-20 11:58 37.383343 -117.855311 226 16346ft 248kts
25-Feb-20 11:59 37.328392 -117.908246 212 16132ft 252kts
25-Feb-20 12:00 37.266352 -117.947074 207 16016ft 252kts
25-Feb-20 12:01 37.202375 -117.983402 208 16017ft 252kts
25-Feb-20 12:02 37.138710 -118.020564 209 16017ft 252kts
25-Feb-20 12:03 37.075490 -118.057351 207 16019ft 251kts
25-Feb-20 12:04 37.013538 -118.089254 205 14632ft 242kts
25-Feb-20 12:05 36.954615 -118.124027 208 12465ft 231kts
25-Feb-20 12:06 36.923465 -118.178232 287 9822ft 218kts
25-Feb-20 12:07 36.928595 -118.235714 221 8744ft 161kts
25-Feb-20 12:08 36.887264 -118.237565 164 6937ft 158kts
25-Feb-20 12:09 36.848811 -118.221191 162 5161ft 148kts
25-Feb-20 12:10 36.815356 -118.204478 156 3898ft 93kts
25-Feb-20 12:11 36.809947 -118.202601 252 3898ft 5kts
25-Feb-20 12:12 36.809926 -118.202681 252 3898ft 0kts
25-Feb-20 12:13 36.809926 -118.202681 252 3898ft 0kts

Navigation Log

Ident Type
Flight plan parsing failed, navigation log unavailable